createdAt,value
2023-04-16T00:01:55.957Z,3.65
2023-04-16T00:04:22.955Z,4.07
2023-04-16T00:06:49.947Z,4.50
2023-04-16T00:09:16.590Z,4.60
2023-04-16T00:11:43.247Z,4.55
2023-04-16T00:14:09.961Z,4.63
2023-04-16T00:16:36.774Z,5.50
2023-04-16T00:19:03.514Z,4.40
2023-04-16T00:21:31.074Z,5.50
2023-04-16T00:23:57.947Z,5.40
2023-04-16T00:26:24.614Z,4.97
2023-04-16T00:28:51.337Z,5.63
2023-04-16T00:31:18.086Z,3.95
2023-04-16T00:33:44.820Z,6.57
2023-04-16T00:36:11.553Z,3.97
2023-04-16T00:38:38.287Z,4.97
2023-04-16T00:41:05.032Z,4.78
2023-04-16T00:43:31.751Z,4.53
2023-04-16T00:45:58.924Z,5.97
2023-04-16T00:48:28.014Z,4.38
2023-04-16T00:50:55.509Z,4.13
2023-04-16T00:53:22.379Z,3.75
2023-04-16T00:55:49.146Z,5.20
2023-04-16T00:58:16.493Z,5.25
2023-04-16T01:00:43.163Z,4.82
2023-04-16T01:03:10.509Z,4.82
2023-04-16T01:05:37.462Z,5.60
2023-04-16T01:08:04.246Z,5.93
2023-04-16T01:10:31.443Z,4.78
2023-04-16T01:12:58.192Z,6.38
2023-04-16T01:15:24.954Z,5.97
2023-04-16T01:17:51.724Z,6.40
2023-04-16T01:20:18.586Z,6.82
2023-04-16T01:22:45.257Z,6.30
2023-04-16T01:25:15.957Z,6.43
2023-04-16T01:27:42.762Z,6.25
2023-04-16T01:30:09.855Z,5.80
2023-04-16T01:32:53.040Z,4.60
2023-04-16T01:35:19.790Z,6.75
2023-04-16T01:37:46.622Z,6.20
2023-04-16T01:40:13.461Z,6.20
2023-04-16T01:42:40.226Z,5.82
2023-04-16T01:45:07.685Z,5.93
2023-04-16T01:47:34.413Z,4.80
2023-04-16T01:50:01.852Z,6.13
2023-04-16T01:52:29.658Z,5.63
2023-04-16T01:54:56.907Z,5.18
2023-04-16T01:57:23.602Z,6.10
2023-04-16T01:59:50.303Z,6.22
2023-04-16T02:02:17.490Z,5.97
2023-04-16T02:04:45.896Z,5.75
2023-04-16T02:07:12.911Z,5.35
2023-04-16T02:09:41.254Z,6.60
2023-04-16T02:12:11.184Z,6.25
2023-04-16T02:14:38.085Z,7.47
2023-04-16T02:17:04.890Z,5.00
2023-04-16T02:19:41.787Z,5.32
2023-04-16T02:22:09.863Z,8.30
2023-04-16T02:24:36.589Z,6.72
2023-04-16T02:27:07.191Z,6.53
2023-04-16T02:29:33.998Z,7.22
2023-04-16T02:32:08.885Z,5.95
2023-04-16T02:34:36.392Z,6.25
2023-04-16T02:37:03.172Z,6.28
2023-04-16T02:39:29.876Z,7.88
2023-04-16T02:41:57.849Z,5.53
2023-04-16T02:44:24.619Z,6.57
2023-04-16T02:46:51.328Z,5.97
2023-04-16T02:49:18.111Z,7.15
2023-04-16T02:51:44.881Z,5.88
2023-04-16T02:54:11.663Z,6.40
2023-04-16T02:56:38.371Z,8.25
2023-04-16T02:59:05.459Z,7.97
2023-04-16T03:01:32.520Z,5.45
2023-04-16T03:03:59.790Z,7.13
2023-04-16T03:06:27.012Z,7.43
2023-04-16T03:08:54.005Z,7.25
2023-04-16T03:11:20.836Z,6.30
2023-04-16T03:13:47.550Z,8.20
2023-04-16T03:16:14.372Z,5.80
2023-04-16T03:18:41.194Z,8.93
2023-04-16T03:21:07.918Z,5.05
2023-04-16T03:23:35.866Z,8.43
2023-04-16T03:26:02.663Z,7.03
2023-04-16T03:28:29.648Z,6.75
2023-04-16T03:30:56.477Z,8.07
2023-04-16T03:33:23.449Z,7.68
2023-04-16T03:35:58.254Z,5.78
2023-04-16T03:38:28.422Z,7.80
2023-04-16T03:40:57.140Z,8.98
2023-04-16T03:43:23.824Z,6.43
2023-04-16T03:45:50.953Z,5.80
2023-04-16T03:48:20.709Z,9.32
2023-04-16T03:50:48.076Z,8.40
2023-04-16T03:53:16.783Z,7.95
2023-04-16T03:55:43.551Z,7.35
2023-04-16T03:58:10.997Z,9.38
2023-04-16T04:00:37.810Z,8.70
2023-04-16T04:03:12.602Z,8.65
2023-04-16T04:05:41.285Z,8.95
2023-04-16T04:08:11.160Z,10.35
2023-04-16T04:10:38.562Z,6.95
2023-04-16T04:13:07.562Z,7.28
2023-04-16T04:15:35.348Z,6.97
2023-04-16T04:18:02.105Z,8.15
2023-04-16T04:20:28.859Z,6.35
2023-04-16T04:22:55.760Z,6.82
2023-04-16T04:25:25.337Z,7.00
2023-04-16T04:27:52.228Z,7.38
2023-04-16T04:30:19.041Z,9.75
2023-04-16T04:32:46.171Z,9.00
2023-04-16T04:35:13.452Z,6.93
2023-04-16T04:37:41.589Z,6.47
2023-04-16T04:40:19.889Z,6.47
2023-04-16T04:42:46.893Z,8.10
2023-04-16T04:45:13.841Z,7.47
2023-04-16T04:47:41.697Z,7.10
2023-04-16T04:50:09.028Z,8.73
2023-04-16T04:52:36.299Z,6.95
2023-04-16T04:55:03.664Z,8.80
2023-04-16T04:57:30.742Z,6.60
2023-04-16T04:59:59.325Z,6.85
2023-04-16T05:02:28.738Z,7.93
2023-04-16T05:04:55.649Z,7.47
2023-04-16T05:07:22.519Z,7.00
2023-04-16T05:09:49.230Z,8.13
2023-04-16T05:12:16.476Z,8.35
2023-04-16T05:14:43.203Z,9.50
2023-04-16T05:17:10.915Z,9.90
2023-04-16T05:19:37.658Z,7.63
2023-04-16T05:22:04.368Z,9.85
2023-04-16T05:24:31.051Z,7.43
2023-04-16T05:26:58.000Z,8.23
2023-04-16T05:29:24.917Z,7.55
2023-04-16T05:31:51.646Z,6.70
2023-04-16T05:34:18.341Z,7.25
2023-04-16T05:36:45.812Z,7.88
2023-04-16T05:39:12.502Z,7.40
2023-04-16T05:41:39.160Z,6.43
2023-04-16T05:44:05.938Z,7.90
2023-04-16T05:46:32.688Z,7.70
2023-04-16T05:48:59.486Z,6.85
2023-04-16T05:51:27.591Z,6.90
2023-04-16T05:53:54.317Z,9.48
2023-04-16T05:56:21.882Z,6.15
2023-04-16T05:58:48.586Z,8.50
2023-04-16T06:01:15.412Z,7.15
2023-04-16T06:03:42.259Z,8.35
2023-04-16T06:06:09.206Z,7.15
2023-04-16T06:08:35.947Z,6.85
2023-04-16T06:11:03.261Z,8.40
2023-04-16T06:13:30.005Z,9.25
2023-04-16T06:15:56.823Z,7.18
2023-04-16T06:18:23.707Z,9.00
2023-04-16T06:20:50.734Z,7.45
2023-04-16T06:23:17.507Z,8.32
2023-04-16T06:25:44.205Z,6.72
2023-04-16T06:28:10.924Z,8.57
2023-04-16T06:30:37.659Z,7.53
2023-04-16T06:33:05.454Z,7.55
2023-04-16T06:35:32.219Z,8.70
2023-04-16T06:37:58.923Z,7.68
2023-04-16T06:40:25.834Z,8.07
2023-04-16T06:42:52.580Z,7.78
2023-04-16T06:45:19.337Z,9.18
2023-04-16T06:47:46.245Z,11.43
2023-04-16T06:50:13.000Z,10.18
2023-04-16T06:52:39.725Z,10.75
2023-04-16T06:55:09.664Z,7.38
2023-04-16T06:57:37.612Z,8.50
2023-04-16T07:00:05.261Z,10.52
2023-04-16T07:02:32.084Z,12.68
2023-04-16T07:04:58.900Z,12.50
2023-04-16T07:07:25.821Z,10.90
2023-04-16T07:09:52.476Z,13.10
2023-04-16T07:12:22.008Z,13.18
2023-04-16T07:14:49.495Z,14.82
2023-04-16T07:17:16.248Z,14.38
2023-04-16T07:19:42.973Z,11.85
2023-04-16T07:22:09.648Z,11.07
2023-04-16T07:24:36.497Z,15.13
2023-04-16T07:27:03.260Z,18.05
2023-04-16T07:29:29.944Z,17.70
2023-04-16T07:31:57.406Z,16.20
2023-04-16T07:34:24.138Z,16.52
2023-04-16T07:36:50.843Z,11.90
2023-04-16T07:39:17.518Z,16.60
2023-04-16T07:41:44.346Z,19.75
2023-04-16T07:44:11.132Z,19.52
2023-04-16T07:46:46.436Z,16.70
2023-04-16T07:49:14.040Z,18.88
2023-04-16T07:51:40.846Z,17.45
2023-04-16T07:54:07.604Z,17.35
2023-04-16T07:56:34.361Z,14.63
2023-04-16T07:59:14.369Z,16.92
2023-04-16T08:01:45.982Z,17.20
2023-04-16T08:04:12.729Z,15.85
2023-04-16T08:06:39.607Z,13.98
2023-04-16T08:09:06.351Z,10.75
2023-04-16T08:11:33.205Z,15.27
2023-04-16T08:13:59.953Z,14.45
2023-04-16T08:16:26.743Z,14.18
2023-04-16T08:18:53.512Z,12.32
2023-04-16T08:21:20.365Z,16.35
2023-04-16T08:23:47.134Z,15.15
2023-04-16T08:26:13.959Z,14.60
2023-04-16T08:28:40.704Z,16.20
2023-04-16T08:31:07.436Z,14.75
2023-04-16T08:33:34.164Z,13.82
2023-04-16T08:36:00.932Z,16.67
2023-04-16T08:38:27.631Z,11.98
2023-04-16T08:40:55.508Z,13.23
2023-04-16T08:43:24.033Z,14.52
2023-04-16T08:45:51.823Z,13.90
2023-04-16T08:48:20.633Z,18.33
2023-04-16T08:50:50.306Z,14.60
2023-04-16T08:53:19.585Z,16.27
2023-04-16T08:55:50.436Z,17.17
2023-04-16T08:58:22.586Z,14.55
2023-04-16T09:00:49.646Z,14.90
2023-04-16T09:03:16.635Z,16.92
2023-04-16T09:05:44.223Z,17.25
2023-04-16T09:08:11.021Z,18.30
2023-04-16T09:10:37.820Z,17.52
2023-04-16T09:13:04.657Z,19.83
2023-04-16T09:15:34.610Z,21.77
2023-04-16T09:18:01.819Z,17.48
2023-04-16T09:20:28.640Z,20.73
2023-04-16T09:22:57.007Z,17.20
2023-04-16T09:25:25.174Z,16.90
2023-04-16T09:27:52.076Z,19.15
2023-04-16T09:30:24.523Z,15.50
2023-04-16T09:32:53.482Z,17.63
2023-04-16T09:35:20.721Z,17.90
2023-04-16T09:37:57.891Z,17.50
2023-04-16T09:40:27.144Z,17.92
2023-04-16T09:42:57.920Z,19.17
2023-04-16T09:45:24.764Z,14.88
2023-04-16T09:47:51.810Z,20.70
2023-04-16T09:50:20.246Z,16.83
2023-04-16T09:52:51.399Z,17.00
2023-04-16T09:55:24.063Z,13.55
2023-04-16T09:58:00.297Z,15.77
2023-04-16T10:00:30.287Z,18.40
2023-04-16T10:03:05.734Z,18.88
2023-04-16T10:05:32.584Z,15.98
2023-04-16T10:08:02.094Z,18.73
2023-04-16T10:10:29.926Z,17.65
2023-04-16T10:12:57.813Z,15.32
2023-04-16T10:15:24.697Z,14.65
2023-04-16T10:17:51.543Z,16.42
2023-04-16T10:20:18.512Z,17.67
2023-04-16T10:22:45.283Z,14.00
2023-04-16T10:25:12.487Z,19.17
2023-04-16T10:27:40.209Z,17.83
2023-04-16T10:30:08.938Z,20.55
2023-04-16T10:32:36.805Z,19.02
2023-04-16T10:35:04.670Z,16.52
2023-04-16T10:37:32.463Z,17.75
2023-04-16T10:40:02.664Z,17.90
2023-04-16T10:42:29.516Z,21.20
2023-04-16T10:45:00.247Z,18.55
2023-04-16T10:47:29.211Z,13.85
2023-04-16T10:49:56.111Z,17.23
2023-04-16T10:52:24.994Z,17.33
2023-04-16T10:54:52.967Z,16.00
2023-04-16T10:57:20.584Z,18.80
2023-04-16T10:59:49.222Z,15.77
2023-04-16T11:02:19.373Z,16.80
2023-04-16T11:04:48.720Z,18.88
2023-04-16T11:07:32.470Z,17.55
2023-04-16T11:10:07.193Z,16.77
2023-04-16T11:13:03.637Z,16.98
2023-04-16T11:15:33.343Z,17.60
2023-04-16T11:18:00.396Z,18.33
2023-04-16T11:20:28.515Z,21.05
2023-04-16T11:22:57.358Z,17.30
2023-04-16T11:25:30.391Z,19.80
2023-04-16T11:27:59.118Z,19.58
2023-04-16T11:30:31.954Z,25.08
2023-04-16T11:32:58.742Z,19.83
2023-04-16T11:35:25.531Z,21.67
2023-04-16T11:37:58.742Z,22.52
2023-04-16T11:40:30.410Z,16.55
2023-04-16T11:43:13.679Z,21.48
2023-04-16T11:45:57.618Z,21.52
2023-04-16T11:48:24.557Z,19.38
2023-04-16T11:50:58.092Z,21.20
2023-04-16T11:53:25.160Z,16.20
2023-04-16T11:55:52.013Z,20.92
2023-04-16T11:58:20.105Z,17.25
2023-04-16T12:00:47.597Z,17.58
2023-04-16T12:03:14.657Z,13.80
2023-04-16T12:05:41.537Z,13.63
2023-04-16T12:08:11.170Z,14.25
2023-04-16T12:10:54.156Z,15.80
2023-04-16T12:13:20.869Z,15.73
2023-04-16T12:15:55.912Z,16.40
2023-04-16T12:18:27.098Z,17.67
2023-04-16T12:20:54.075Z,13.45
2023-04-16T12:23:26.403Z,15.75
2023-04-16T12:25:53.723Z,18.08
2023-04-16T12:28:38.318Z,15.50
2023-04-16T12:31:05.993Z,20.30
2023-04-16T12:33:32.889Z,11.00
2023-04-16T12:35:59.808Z,12.15
2023-04-16T12:38:27.486Z,13.75
2023-04-16T12:40:57.007Z,12.57
2023-04-16T12:43:24.865Z,22.00
2023-04-16T12:45:51.559Z,15.60
2023-04-16T12:48:18.335Z,19.55
2023-04-16T12:50:45.088Z,13.82
2023-04-16T12:53:12.035Z,15.02
2023-04-16T12:55:38.810Z,12.40
2023-04-16T12:58:05.710Z,13.50
2023-04-16T13:00:32.763Z,15.00
2023-04-16T13:02:59.680Z,12.65
2023-04-16T13:05:27.166Z,14.70
2023-04-16T13:07:54.163Z,15.18
2023-04-16T13:10:21.999Z,14.15
2023-04-16T13:12:49.328Z,12.25
2023-04-16T13:15:16.096Z,11.65
2023-04-16T13:17:42.918Z,13.00
2023-04-16T13:20:10.511Z,12.48
2023-04-16T13:22:37.532Z,12.82
2023-04-16T13:25:04.883Z,12.30
2023-04-16T13:27:32.535Z,13.65
2023-04-16T13:29:59.338Z,13.35
2023-04-16T13:32:26.180Z,11.48
2023-04-16T13:34:52.871Z,13.55
2023-04-16T13:37:19.715Z,14.18
2023-04-16T13:39:47.299Z,13.23
2023-04-16T13:42:14.077Z,14.38
2023-04-16T13:44:41.032Z,12.45
2023-04-16T13:47:08.070Z,15.70
2023-04-16T13:49:35.775Z,14.55
2023-04-16T13:52:03.192Z,16.23
2023-04-16T13:54:29.979Z,14.35
2023-04-16T13:56:56.794Z,13.30
2023-04-16T13:59:23.586Z,11.00
2023-04-16T14:01:50.486Z,13.70
2023-04-16T14:04:17.273Z,12.48
2023-04-16T14:06:43.986Z,11.02
2023-04-16T14:09:11.157Z,12.13
2023-04-16T14:11:38.132Z,12.80
2023-04-16T14:14:05.017Z,12.95
2023-04-16T14:16:31.741Z,13.23
2023-04-16T14:18:58.455Z,10.75
2023-04-16T14:21:26.621Z,12.30
2023-04-16T14:23:53.323Z,11.63
2023-04-16T14:26:19.988Z,14.18
2023-04-16T14:28:46.915Z,14.45
2023-04-16T14:31:13.711Z,12.52
2023-04-16T14:33:40.857Z,11.13
2023-04-16T14:36:07.756Z,11.98
2023-04-16T14:38:34.526Z,11.98
2023-04-16T14:41:01.292Z,12.70
2023-04-16T14:43:27.982Z,12.00
2023-04-16T14:45:54.730Z,11.80
2023-04-16T14:48:22.068Z,13.02
2023-04-16T14:50:48.878Z,11.43
2023-04-16T14:53:15.901Z,12.32
2023-04-16T14:55:42.672Z,12.73
2023-04-16T14:58:10.788Z,11.38
2023-04-16T15:00:37.828Z,15.00
2023-04-16T15:03:05.561Z,11.02
2023-04-16T15:05:32.695Z,14.27
2023-04-16T15:08:00.465Z,13.25
2023-04-16T15:10:27.486Z,13.25
2023-04-16T15:12:54.254Z,12.60
2023-04-16T15:15:21.243Z,13.00
2023-04-16T15:17:48.056Z,11.38
2023-04-16T15:20:15.220Z,13.73
2023-04-16T15:22:42.030Z,12.18
2023-04-16T15:25:09.195Z,13.00
2023-04-16T15:27:36.607Z,13.60
2023-04-16T15:30:03.748Z,13.40
2023-04-16T15:32:31.347Z,14.15
2023-04-16T15:34:58.242Z,13.77
2023-04-16T15:37:24.892Z,13.25
2023-04-16T15:39:51.574Z,12.77
2023-04-16T15:42:18.278Z,13.00
2023-04-16T15:44:45.084Z,11.18
2023-04-16T15:47:11.781Z,12.88
2023-04-16T15:49:38.584Z,12.18
2023-04-16T15:52:05.597Z,12.38
2023-04-16T15:54:32.435Z,12.52
2023-04-16T15:56:59.311Z,12.38
2023-04-16T15:59:26.900Z,11.70
2023-04-16T16:01:53.789Z,12.13
2023-04-16T16:04:22.750Z,11.25
2023-04-16T16:06:50.375Z,10.88
2023-04-16T16:09:17.263Z,11.75
2023-04-16T16:11:44.201Z,11.75
2023-04-16T16:14:10.977Z,12.77
2023-04-16T16:16:37.896Z,11.50
2023-04-16T16:19:04.727Z,13.65
2023-04-16T16:21:32.524Z,12.55
2023-04-16T16:23:59.335Z,11.55
2023-04-16T16:26:26.038Z,12.55
2023-04-16T16:28:52.789Z,10.35
2023-04-16T16:31:19.569Z,12.35
2023-04-16T16:33:46.328Z,15.13
2023-04-16T16:36:13.003Z,13.45
2023-04-16T16:38:40.923Z,11.63
2023-04-16T16:41:07.824Z,14.27
2023-04-16T16:43:36.249Z,15.35
2023-04-16T16:46:03.011Z,12.90
2023-04-16T16:48:29.709Z,13.90
2023-04-16T16:50:56.391Z,13.30
2023-04-16T16:53:23.150Z,11.90
2023-04-16T16:55:49.946Z,12.65
2023-04-16T16:58:17.055Z,11.85
2023-04-16T17:00:43.917Z,12.63
2023-04-16T17:03:11.125Z,13.30
2023-04-16T17:05:38.181Z,12.07
2023-04-16T17:08:06.518Z,11.68
2023-04-16T17:10:33.223Z,11.18
2023-04-16T17:12:59.945Z,12.05
2023-04-16T17:15:26.855Z,10.80
2023-04-16T17:17:53.886Z,10.70
2023-04-16T17:20:20.843Z,10.98
2023-04-16T17:22:47.612Z,9.88
2023-04-16T17:25:14.723Z,11.65
2023-04-16T17:27:41.588Z,12.63
2023-04-16T17:30:08.816Z,12.00
2023-04-16T17:32:35.712Z,13.30
2023-04-16T17:35:04.239Z,10.90
2023-04-16T17:37:31.356Z,11.88
2023-04-16T17:39:58.140Z,12.48
2023-04-16T17:42:24.894Z,13.55
2023-04-16T17:44:51.879Z,13.55
2023-04-16T17:47:18.604Z,11.55
2023-04-16T17:49:45.689Z,10.77
2023-04-16T17:52:12.396Z,11.05
2023-04-16T17:54:39.159Z,11.95
2023-04-16T17:57:05.872Z,12.57
2023-04-16T17:59:33.167Z,10.63
2023-04-16T18:01:59.979Z,13.02
2023-04-16T18:04:26.938Z,13.00
2023-04-16T18:06:53.865Z,13.45
2023-04-16T18:09:20.616Z,14.10
2023-04-16T18:11:47.357Z,11.88
2023-04-16T18:14:16.888Z,12.48
2023-04-16T18:16:43.842Z,11.77
2023-04-16T18:19:11.316Z,13.63
2023-04-16T18:21:38.068Z,14.10
2023-04-16T18:24:05.337Z,12.95
2023-04-16T18:26:35.690Z,12.43
2023-04-16T18:29:03.951Z,12.85
2023-04-16T18:31:30.908Z,13.07
2023-04-16T18:33:58.552Z,12.15
2023-04-16T18:36:26.783Z,13.55
2023-04-16T18:39:00.969Z,11.27
2023-04-16T18:41:29.005Z,12.18
2023-04-16T18:43:55.909Z,11.05
2023-04-16T18:46:22.825Z,11.77
2023-04-16T18:48:49.683Z,13.70
2023-04-16T18:51:16.815Z,13.10
2023-04-16T18:53:45.601Z,13.05
2023-04-16T18:56:12.821Z,14.00
2023-04-16T18:58:39.587Z,13.93
2023-04-16T19:01:11.029Z,14.23
2023-04-16T19:03:38.461Z,9.85
2023-04-16T19:06:06.104Z,11.35
2023-04-16T19:08:33.055Z,13.40
2023-04-16T19:10:59.923Z,11.40
2023-04-16T19:13:26.750Z,12.63
2023-04-16T19:16:01.419Z,12.13
2023-04-16T19:18:28.352Z,14.00
2023-04-16T19:21:01.335Z,12.63
2023-04-16T19:23:28.661Z,13.48
2023-04-16T19:25:58.618Z,13.48
2023-04-16T19:28:25.718Z,11.88
2023-04-16T19:30:55.947Z,10.88
2023-04-16T19:33:22.821Z,12.48
2023-04-16T19:35:49.597Z,11.43
2023-04-16T19:38:16.396Z,14.45
2023-04-16T19:40:48.078Z,11.95
2023-04-16T19:43:15.414Z,13.60
2023-04-16T19:45:46.491Z,11.70
2023-04-16T19:48:13.814Z,12.37
2023-04-16T19:50:41.871Z,12.75
2023-04-16T19:53:09.018Z,12.27
2023-04-16T19:55:36.466Z,13.70
2023-04-16T19:58:06.487Z,14.57
2023-04-16T20:00:35.114Z,14.55
2023-04-16T20:03:01.994Z,13.25
2023-04-16T20:05:29.514Z,13.32
2023-04-16T20:07:56.674Z,12.32
2023-04-16T20:10:24.123Z,15.20
2023-04-16T20:12:51.435Z,12.55
2023-04-16T20:15:18.929Z,11.85
2023-04-16T20:17:45.867Z,13.75
2023-04-16T20:20:15.056Z,13.40
2023-04-16T20:22:42.413Z,12.90
2023-04-16T20:25:09.975Z,15.25
2023-04-16T20:27:36.732Z,13.18
2023-04-16T20:30:05.408Z,13.07
2023-04-16T20:32:32.317Z,13.45
2023-04-16T20:34:59.702Z,12.55
2023-04-16T20:37:28.724Z,10.65
2023-04-16T20:39:56.065Z,13.85
2023-04-16T20:42:23.099Z,14.25
2023-04-16T20:44:56.502Z,13.98
2023-04-16T20:47:23.798Z,11.85
2023-04-16T20:49:52.786Z,13.25
2023-04-16T20:52:19.850Z,13.10
2023-04-16T20:54:47.133Z,12.63
2023-04-16T20:57:13.838Z,13.73
2023-04-16T20:59:40.574Z,13.45
2023-04-16T21:02:07.910Z,13.52
2023-04-16T21:04:34.929Z,13.93
2023-04-16T21:07:03.943Z,13.18
2023-04-16T21:09:31.318Z,12.02
2023-04-16T21:11:58.066Z,13.07
2023-04-16T21:14:27.651Z,13.55
2023-04-16T21:16:54.825Z,11.48
2023-04-16T21:19:22.436Z,12.85
2023-04-16T21:21:49.210Z,13.77
2023-04-16T21:24:16.103Z,14.00
2023-04-16T21:26:42.851Z,11.48
2023-04-16T21:29:09.709Z,13.50
2023-04-16T21:31:36.745Z,14.30
2023-04-16T21:34:03.522Z,13.27
2023-04-16T21:36:31.984Z,11.07
2023-04-16T21:38:58.721Z,13.38
2023-04-16T21:41:25.606Z,14.63
2023-04-16T21:43:52.295Z,12.85
2023-04-16T21:46:19.051Z,12.80
2023-04-16T21:48:46.170Z,13.02
2023-04-16T21:51:14.007Z,13.90
2023-04-16T21:53:40.771Z,15.70
2023-04-16T21:56:07.779Z,12.77
2023-04-16T21:58:34.468Z,15.23
2023-04-16T22:01:01.410Z,15.68
2023-04-16T22:03:31.162Z,14.32
2023-04-16T22:06:01.968Z,15.75
2023-04-16T22:08:30.210Z,11.45
2023-04-16T22:11:02.147Z,14.68
2023-04-16T22:13:32.163Z,15.73
2023-04-16T22:16:02.258Z,17.33
2023-04-16T22:18:32.746Z,19.33
2023-04-16T22:20:59.848Z,15.07
2023-04-16T22:23:26.581Z,19.30
2023-04-16T22:25:55.489Z,18.10
2023-04-16T22:28:22.548Z,17.02
2023-04-16T22:30:49.422Z,16.00
2023-04-16T22:33:16.274Z,17.88
2023-04-16T22:35:43.017Z,19.23
2023-04-16T22:38:10.323Z,20.35
2023-04-16T22:40:37.143Z,20.33
2023-04-16T22:43:04.328Z,20.20
2023-04-16T22:45:31.143Z,21.27
2023-04-16T22:47:57.882Z,17.10
2023-04-16T22:50:24.580Z,21.65
2023-04-16T22:52:51.288Z,20.05
2023-04-16T22:55:18.213Z,19.92
2023-04-16T22:57:44.889Z,22.65
2023-04-16T23:00:16.161Z,17.17
2023-04-16T23:02:43.806Z,21.92
2023-04-16T23:05:10.873Z,15.75
2023-04-16T23:07:37.587Z,20.42
2023-04-16T23:10:04.907Z,22.45
2023-04-16T23:12:32.186Z,20.73
2023-04-16T23:15:00.491Z,22.13
2023-04-16T23:17:28.034Z,13.45
2023-04-16T23:19:54.943Z,22.92
2023-04-16T23:22:21.680Z,22.13
2023-04-16T23:24:49.454Z,20.67
2023-04-16T23:27:16.110Z,21.80
2023-04-16T23:29:42.840Z,21.20
2023-04-16T23:32:09.590Z,19.95
2023-04-16T23:34:36.242Z,20.90
2023-04-16T23:37:02.989Z,23.52
2023-04-16T23:39:29.657Z,20.95
2023-04-16T23:41:57.501Z,21.67
2023-04-16T23:44:24.283Z,23.02
2023-04-16T23:46:51.022Z,23.63
2023-04-16T23:49:17.755Z,21.13
2023-04-16T23:51:44.419Z,19.10
2023-04-16T23:54:11.153Z,21.98
2023-04-16T23:56:37.837Z,13.68
2023-04-16T23:59:04.645Z,25.45
